Hanzhong, China
Current Conditions -  °F | °C
As of 6:00 AM on Tuesday 25 Nov 2014 (Local Time) from ZLXY Reporting Station
Moderate Fog Moderate Fog  
Wind Chill: 40°   Ceiling: 4000
Heat Index: 43°   Visibility: 0.5mi
Dew Point: 43°   Wind: 4mph
Humidity: 100%   Direction: 220°SW
Pressure: 30.12"   Gusts: NA
Location:  33.13°N, 107.03°E
Report Text: ZLXY 242200Z 22002MPS 0800 R05L/0500N R05R/0450D FGFEW003SCT010 OVC040 06/06 Q1020 BECMG TL2230 0700 FG
Loading
Personal Weather Stations






























Interactive Weather Map New forecast layout! Learn more

10-Day Weather Forecast

Advertisements
Track Severe Weather on mobile